sensor_id;sensor_type;location;lat;lon;timestamp;temperature;humidity
44166;DHT22;30476;53.468;9.826;2023-01-23T00:00:05;5.30;99.90
44166;DHT22;30476;53.468;9.826;2023-01-23T00:02:31;5.30;99.90
44166;DHT22;30476;53.468;9.826;2023-01-23T00:04:56;5.30;99.90
44166;DHT22;30476;53.468;9.826;2023-01-23T00:07:22;5.30;99.90
44166;DHT22;30476;53.468;9.826;2023-01-23T00:09:48;5.30;99.90
44166;DHT22;30476;53.468;9.826;2023-01-23T00:12:14;5.30;99.90
44166;DHT22;30476;53.468;9.826;2023-01-23T00:14:40;5.30;99.90
44166;DHT22;30476;53.468;9.826;2023-01-23T00:17:06;5.20;99.90
44166;DHT22;30476;53.468;9.826;2023-01-23T00:19:31;5.20;99.90
44166;DHT22;30476;53.468;9.826;2023-01-23T00:21:58;5.20;99.90
44166;DHT22;30476;53.468;9.826;2023-01-23T00:24:25;5.20;99.90
44166;DHT22;30476;53.468;9.826;2023-01-23T00:26:51;5.20;99.90
44166;DHT22;30476;53.468;9.826;2023-01-23T00:29:17;5.20;99.90
44166;DHT22;30476;53.468;9.826;2023-01-23T00:31:43;5.20;99.90
44166;DHT22;30476;53.468;9.826;2023-01-23T00:34:12;5.20;99.90
44166;DHT22;30476;53.468;9.826;2023-01-23T00:36:40;5.20;99.90
44166;DHT22;30476;53.468;9.826;2023-01-23T00:39:14;5.20;99.90
44166;DHT22;30476;53.468;9.826;2023-01-23T00:41:40;5.20;99.90
44166;DHT22;30476;53.468;9.826;2023-01-23T00:44:05;5.20;99.90
44166;DHT22;30476;53.468;9.826;2023-01-23T00:46:31;5.20;99.90
44166;DHT22;30476;53.468;9.826;2023-01-23T00:48:57;5.20;99.90
44166;DHT22;30476;53.468;9.826;2023-01-23T00:51:23;5.10;99.90
44166;DHT22;30476;53.468;9.826;2023-01-23T00:53:49;5.10;99.90
44166;DHT22;30476;53.468;9.826;2023-01-23T00:56:14;5.20;99.90
44166;DHT22;30476;53.468;9.826;2023-01-23T00:58:41;5.20;99.90
44166;DHT22;30476;53.468;9.826;2023-01-23T01:01:07;5.20;99.90
44166;DHT22;30476;53.468;9.826;2023-01-23T01:03:34;5.20;99.90
44166;DHT22;30476;53.468;9.826;2023-01-23T01:06:00;5.20;99.90
44166;DHT22;30476;53.468;9.826;2023-01-23T01:08:26;5.20;99.90
44166;DHT22;30476;53.468;9.826;2023-01-23T01:10:52;5.20;99.90
44166;DHT22;30476;53.468;9.826;2023-01-23T01:13:18;5.20;99.90
44166;DHT22;30476;53.468;9.826;2023-01-23T01:15:49;5.20;99.90
44166;DHT22;30476;53.468;9.826;2023-01-23T01:18:16;5.20;99.90
44166;DHT22;30476;53.468;9.826;2023-01-23T01:20:42;5.20;99.90
44166;DHT22;30476;53.468;9.826;2023-01-23T01:23:09;5.20;99.90
44166;DHT22;30476;53.468;9.826;2023-01-23T01:25:36;5.20;99.90
44166;DHT22;30476;53.468;9.826;2023-01-23T01:28:03;5.20;99.90
44166;DHT22;30476;53.468;9.826;2023-01-23T01:30:29;5.20;99.90
44166;DHT22;30476;53.468;9.826;2023-01-23T01:32:55;5.10;99.90
44166;DHT22;30476;53.468;9.826;2023-01-23T01:35:22;5.20;99.90
44166;DHT22;30476;53.468;9.826;2023-01-23T01:37:48;5.10;99.90
44166;DHT22;30476;53.468;9.826;2023-01-23T01:40:17;5.10;99.90
44166;DHT22;30476;53.468;9.826;2023-01-23T01:42:53;5.10;99.90
44166;DHT22;30476;53.468;9.826;2023-01-23T01:48:25;5.10;99.90
44166;DHT22;30476;53.468;9.826;2023-01-23T01:50:53;5.10;99.90
44166;DHT22;30476;53.468;9.826;2023-01-23T01:53:20;5.10;99.90
44166;DHT22;30476;53.468;9.826;2023-01-23T01:55:48;5.10;99.90
44166;DHT22;30476;53.468;9.826;2023-01-23T01:58:14;5.10;99.90
44166;DHT22;30476;53.468;9.826;2023-01-23T02:00:40;5.00;99.90
44166;DHT22;30476;53.468;9.826;2023-01-23T02:03:06;5.00;99.90
44166;DHT22;30476;53.468;9.826;2023-01-23T02:05:37;5.00;99.90
44166;DHT22;30476;53.468;9.826;2023-01-23T02:10:30;5.00;99.90
44166;DHT22;30476;53.468;9.826;2023-01-23T02:15:50;5.00;99.90
44166;DHT22;30476;53.468;9.826;2023-01-23T02:18:16;5.00;99.90
44166;DHT22;30476;53.468;9.826;2023-01-23T02:20:42;5.00;99.90
44166;DHT22;30476;53.468;9.826;2023-01-23T02:25:56;5.00;99.90
44166;DHT22;30476;53.468;9.826;2023-01-23T02:28:35;5.00;99.90
44166;DHT22;30476;53.468;9.826;2023-01-23T02:31:01;5.00;99.90
44166;DHT22;30476;53.468;9.826;2023-01-23T02:35:53;5.00;99.90
44166;DHT22;30476;53.468;9.826;2023-01-23T02:38:23;5.00;99.90
44166;DHT22;30476;53.468;9.826;2023-01-23T02:40:49;5.00;99.90
44166;DHT22;30476;53.468;9.826;2023-01-23T02:43:20;5.00;99.90
44166;DHT22;30476;53.468;9.826;2023-01-23T02:45:47;5.00;99.90
44166;DHT22;30476;53.468;9.826;2023-01-23T02:48:13;5.00;99.90
44166;DHT22;30476;53.468;9.826;2023-01-23T02:50:39;5.00;99.90
44166;DHT22;30476;53.468;9.826;2023-01-23T02:53:06;5.00;99.90
44166;DHT22;30476;53.468;9.826;2023-01-23T02:55:32;5.00;99.90
44166;DHT22;30476;53.468;9.826;2023-01-23T02:58:01;5.00;99.90
44166;DHT22;30476;53.468;9.826;2023-01-23T03:00:46;5.00;99.90
44166;DHT22;30476;53.468;9.826;2023-01-23T03:03:12;5.00;99.90
44166;DHT22;30476;53.468;9.826;2023-01-23T03:05:38;5.00;99.90
44166;DHT22;30476;53.468;9.826;2023-01-23T03:08:04;5.00;99.90
44166;DHT22;30476;53.468;9.826;2023-01-23T03:10:30;5.00;99.90
44166;DHT22;30476;53.468;9.826;2023-01-23T03:12:58;5.00;99.90
44166;DHT22;30476;53.468;9.826;2023-01-23T03:15:27;5.00;99.90
44166;DHT22;30476;53.468;9.826;2023-01-23T03:17:53;5.00;99.90
44166;DHT22;30476;53.468;9.826;2023-01-23T03:20:19;5.00;99.90
44166;DHT22;30476;53.468;9.826;2023-01-23T03:22:48;5.00;99.90
44166;DHT22;30476;53.468;9.826;2023-01-23T03:25:15;5.00;99.90
44166;DHT22;30476;53.468;9.826;2023-01-23T03:27:41;5.00;99.90
44166;DHT22;30476;53.468;9.826;2023-01-23T03:30:07;5.00;99.90
44166;DHT22;30476;53.468;9.826;2023-01-23T03:32:44;5.00;99.90
44166;DHT22;30476;53.468;9.826;2023-01-23T03:35:11;5.00;99.90
44166;DHT22;30476;53.468;9.826;2023-01-23T03:37:42;5.00;99.90
44166;DHT22;30476;53.468;9.826;2023-01-23T03:40:26;5.00;99.90
44166;DHT22;30476;53.468;9.826;2023-01-23T03:43:10;5.00;99.90
44166;DHT22;30476;53.468;9.826;2023-01-23T03:45:36;5.00;99.90
44166;DHT22;30476;53.468;9.826;2023-01-23T03:48:01;5.00;99.90
44166;DHT22;30476;53.468;9.826;2023-01-23T03:50:27;5.00;99.90
44166;DHT22;30476;53.468;9.826;2023-01-23T03:52:53;5.00;99.90
44166;DHT22;30476;53.468;9.826;2023-01-23T03:55:19;5.00;99.90
44166;DHT22;30476;53.468;9.826;2023-01-23T03:57:45;5.00;99.90
44166;DHT22;30476;53.468;9.826;2023-01-23T04:00:11;5.00;99.90
44166;DHT22;30476;53.468;9.826;2023-01-23T04:02:38;4.90;99.90
44166;DHT22;30476;53.468;9.826;2023-01-23T04:05:04;4.90;99.90
44166;DHT22;30476;53.468;9.826;2023-01-23T04:07:29;4.90;99.90
44166;DHT22;30476;53.468;9.826;2023-01-23T04:09:55;4.90;99.90
44166;DHT22;30476;53.468;9.826;2023-01-23T04:12:21;4.90;99.90
44166;DHT22;30476;53.468;9.826;2023-01-23T04:14:46;4.90;99.90
44166;DHT22;30476;53.468;9.826;2023-01-23T04:17:12;5.00;99.90
44166;DHT22;30476;53.468;9.826;2023-01-23T04:19:38;5.00;99.90
44166;DHT22;30476;53.468;9.826;2023-01-23T04:22:04;5.00;99.90
44166;DHT22;30476;53.468;9.826;2023-01-23T04:24:29;4.90;99.90
44166;DHT22;30476;53.468;9.826;2023-01-23T04:26:55;5.00;99.90
44166;DHT22;30476;53.468;9.826;2023-01-23T04:29:21;5.00;99.90
44166;DHT22;30476;53.468;9.826;2023-01-23T04:31:47;4.90;99.90
44166;DHT22;30476;53.468;9.826;2023-01-23T04:34:13;4.90;99.90
44166;DHT22;30476;53.468;9.826;2023-01-23T04:36:38;4.90;99.90
44166;DHT22;30476;53.468;9.826;2023-01-23T04:39:04;4.90;99.90
44166;DHT22;30476;53.468;9.826;2023-01-23T04:41:31;4.90;99.90
44166;DHT22;30476;53.468;9.826;2023-01-23T04:43:57;4.90;99.90
44166;DHT22;30476;53.468;9.826;2023-01-23T04:46:43;4.90;99.90
44166;DHT22;30476;53.468;9.826;2023-01-23T04:49:09;4.90;99.90
44166;DHT22;30476;53.468;9.826;2023-01-23T04:51:36;4.90;99.90
44166;DHT22;30476;53.468;9.826;2023-01-23T04:54:02;4.90;99.90
44166;DHT22;30476;53.468;9.826;2023-01-23T04:56:28;5.00;99.90
44166;DHT22;30476;53.468;9.826;2023-01-23T04:58:54;4.90;99.90
44166;DHT22;30476;53.468;9.826;2023-01-23T05:01:20;4.90;99.90
44166;DHT22;30476;53.468;9.826;2023-01-23T05:03:50;5.00;99.90
44166;DHT22;30476;53.468;9.826;2023-01-23T05:06:16;5.00;99.90
44166;DHT22;30476;53.468;9.826;2023-01-23T05:08:42;5.00;99.90
44166;DHT22;30476;53.468;9.826;2023-01-23T05:11:07;4.90;99.90
44166;DHT22;30476;53.468;9.826;2023-01-23T05:13:33;4.90;99.90
44166;DHT22;30476;53.468;9.826;2023-01-23T05:15:59;4.90;99.90
44166;DHT22;30476;53.468;9.826;2023-01-23T05:18:25;4.90;99.90
44166;DHT22;30476;53.468;9.826;2023-01-23T05:20:51;5.00;99.90
44166;DHT22;30476;53.468;9.826;2023-01-23T05:23:17;5.00;99.90
44166;DHT22;30476;53.468;9.826;2023-01-23T05:25:44;5.00;99.90
44166;DHT22;30476;53.468;9.826;2023-01-23T05:28:09;5.00;99.90
44166;DHT22;30476;53.468;9.826;2023-01-23T05:30:35;4.90;99.90
44166;DHT22;30476;53.468;9.826;2023-01-23T05:33:01;5.00;99.90
44166;DHT22;30476;53.468;9.826;2023-01-23T05:35:27;4.90;99.90
44166;DHT22;30476;53.468;9.826;2023-01-23T05:37:53;4.90;99.90
44166;DHT22;30476;53.468;9.826;2023-01-23T05:40:19;4.90;99.90
44166;DHT22;30476;53.468;9.826;2023-01-23T05:42:46;4.90;99.90
44166;DHT22;30476;53.468;9.826;2023-01-23T05:45:12;4.90;99.90
44166;DHT22;30476;53.468;9.826;2023-01-23T05:47:38;4.90;99.90
44166;DHT22;30476;53.468;9.826;2023-01-23T05:50:05;4.90;99.90
44166;DHT22;30476;53.468;9.826;2023-01-23T05:52:32;4.90;99.90
44166;DHT22;30476;53.468;9.826;2023-01-23T05:54:57;4.90;99.90
44166;DHT22;30476;53.468;9.826;2023-01-23T05:57:23;4.90;99.90
44166;DHT22;30476;53.468;9.826;2023-01-23T05:59:49;4.90;99.90
44166;DHT22;30476;53.468;9.826;2023-01-23T06:02:15;4.90;99.90
44166;DHT22;30476;53.468;9.826;2023-01-23T06:04:40;4.90;99.90
44166;DHT22;30476;53.468;9.826;2023-01-23T06:07:12;4.90;99.90
44166;DHT22;30476;53.468;9.826;2023-01-23T06:09:38;4.90;99.90
44166;DHT22;30476;53.468;9.826;2023-01-23T06:12:04;5.00;99.90
44166;DHT22;30476;53.468;9.826;2023-01-23T06:14:30;5.00;99.90
44166;DHT22;30476;53.468;9.826;2023-01-23T06:16:55;4.90;99.90
44166;DHT22;30476;53.468;9.826;2023-01-23T06:19:21;4.90;99.90
44166;DHT22;30476;53.468;9.826;2023-01-23T06:21:47;4.90;99.90
44166;DHT22;30476;53.468;9.826;2023-01-23T06:24:12;4.90;99.90
44166;DHT22;30476;53.468;9.826;2023-01-23T06:26:38;4.90;99.90
44166;DHT22;30476;53.468;9.826;2023-01-23T06:29:04;4.90;99.90
44166;DHT22;30476;53.468;9.826;2023-01-23T06:31:30;4.90;99.90
44166;DHT22;30476;53.468;9.826;2023-01-23T06:33:57;4.90;99.90
44166;DHT22;30476;53.468;9.826;2023-01-23T06:36:24;4.90;99.90
44166;DHT22;30476;53.468;9.826;2023-01-23T06:38:50;4.90;99.90
44166;DHT22;30476;53.468;9.826;2023-01-23T06:41:16;4.90;99.90
44166;DHT22;30476;53.468;9.826;2023-01-23T06:43:42;4.90;99.90
44166;DHT22;30476;53.468;9.826;2023-01-23T06:46:09;4.90;99.90
44166;DHT22;30476;53.468;9.826;2023-01-23T06:48:36;4.90;99.90
44166;DHT22;30476;53.468;9.826;2023-01-23T06:51:03;4.90;99.90
44166;DHT22;30476;53.468;9.826;2023-01-23T06:53:29;4.90;99.90
44166;DHT22;30476;53.468;9.826;2023-01-23T06:56:01;4.90;99.90
44166;DHT22;30476;53.468;9.826;2023-01-23T06:58:28;4.90;99.90
44166;DHT22;30476;53.468;9.826;2023-01-23T07:00:54;4.90;99.90
44166;DHT22;30476;53.468;9.826;2023-01-23T07:03:20;4.80;99.90
44166;DHT22;30476;53.468;9.826;2023-01-23T07:05:45;4.90;99.90
44166;DHT22;30476;53.468;9.826;2023-01-23T07:08:11;4.90;99.90
44166;DHT22;30476;53.468;9.826;2023-01-23T07:10:38;4.80;99.90
44166;DHT22;30476;53.468;9.826;2023-01-23T07:13:05;4.90;99.90
44166;DHT22;30476;53.468;9.826;2023-01-23T07:15:31;4.80;99.90
44166;DHT22;30476;53.468;9.826;2023-01-23T07:17:58;4.80;99.90
44166;DHT22;30476;53.468;9.826;2023-01-23T07:20:24;4.90;99.90
44166;DHT22;30476;53.468;9.826;2023-01-23T07:22:54;4.80;99.90
44166;DHT22;30476;53.468;9.826;2023-01-23T07:25:21;4.90;99.90
44166;DHT22;30476;53.468;9.826;2023-01-23T07:27:47;4.90;99.90
44166;DHT22;30476;53.468;9.826;2023-01-23T07:30:13;4.90;99.90
44166;DHT22;30476;53.468;9.826;2023-01-23T07:32:39;4.90;99.90
44166;DHT22;30476;53.468;9.826;2023-01-23T07:35:06;4.90;99.90
44166;DHT22;30476;53.468;9.826;2023-01-23T07:37:32;4.90;99.90
44166;DHT22;30476;53.468;9.826;2023-01-23T07:39:58;5.00;99.90
44166;DHT22;30476;53.468;9.826;2023-01-23T07:42:23;4.90;99.90
44166;DHT22;30476;53.468;9.826;2023-01-23T07:44:49;4.90;99.90
44166;DHT22;30476;53.468;9.826;2023-01-23T07:47:15;5.00;99.90
44166;DHT22;30476;53.468;9.826;2023-01-23T07:49:41;5.00;99.90
44166;DHT22;30476;53.468;9.826;2023-01-23T07:52:07;5.00;99.90
44166;DHT22;30476;53.468;9.826;2023-01-23T07:54:33;5.00;99.90
44166;DHT22;30476;53.468;9.826;2023-01-23T07:56:58;4.90;99.90
44166;DHT22;30476;53.468;9.826;2023-01-23T07:59:24;4.90;99.90
44166;DHT22;30476;53.468;9.826;2023-01-23T08:01:49;4.90;99.90
44166;DHT22;30476;53.468;9.826;2023-01-23T08:04:18;5.00;99.90
44166;DHT22;30476;53.468;9.826;2023-01-23T08:06:44;5.00;99.90
44166;DHT22;30476;53.468;9.826;2023-01-23T08:09:10;5.00;99.90
44166;DHT22;30476;53.468;9.826;2023-01-23T08:11:35;5.00;99.90
44166;DHT22;30476;53.468;9.826;2023-01-23T08:14:02;5.00;99.90
44166;DHT22;30476;53.468;9.826;2023-01-23T08:16:28;5.00;99.90
44166;DHT22;30476;53.468;9.826;2023-01-23T08:18:54;5.00;99.90
44166;DHT22;30476;53.468;9.826;2023-01-23T08:21:20;5.00;99.90
44166;DHT22;30476;53.468;9.826;2023-01-23T08:23:46;5.00;99.90
44166;DHT22;30476;53.468;9.826;2023-01-23T08:26:13;5.00;99.90
44166;DHT22;30476;53.468;9.826;2023-01-23T08:28:41;5.00;99.90
44166;DHT22;30476;53.468;9.826;2023-01-23T08:31:09;5.00;99.90
44166;DHT22;30476;53.468;9.826;2023-01-23T08:33:36;5.00;99.90
44166;DHT22;30476;53.468;9.826;2023-01-23T08:36:03;5.00;99.90
44166;DHT22;30476;53.468;9.826;2023-01-23T08:38:29;5.00;99.90
44166;DHT22;30476;53.468;9.826;2023-01-23T08:40:58;5.00;99.90
44166;DHT22;30476;53.468;9.826;2023-01-23T08:43:24;5.00;99.90
44166;DHT22;30476;53.468;9.826;2023-01-23T08:45:52;5.10;99.90
44166;DHT22;30476;53.468;9.826;2023-01-23T08:48:19;5.10;99.90
44166;DHT22;30476;53.468;9.826;2023-01-23T08:50:45;5.10;99.90
44166;DHT22;30476;53.468;9.826;2023-01-23T08:53:11;5.10;99.90
44166;DHT22;30476;53.468;9.826;2023-01-23T08:55:38;5.10;99.90
44166;DHT22;30476;53.468;9.826;2023-01-23T08:58:08;5.10;99.90
44166;DHT22;30476;53.468;9.826;2023-01-23T09:00:35;5.10;99.90
44166;DHT22;30476;53.468;9.826;2023-01-23T09:03:02;5.10;99.90
44166;DHT22;30476;53.468;9.826;2023-01-23T09:05:28;5.10;99.90
44166;DHT22;30476;53.468;9.826;2023-01-23T09:07:55;5.20;99.90
44166;DHT22;30476;53.468;9.826;2023-01-23T09:10:22;5.20;99.90
44166;DHT22;30476;53.468;9.826;2023-01-23T09:12:50;5.20;99.90
44166;DHT22;30476;53.468;9.826;2023-01-23T09:15:16;5.20;99.90
44166;DHT22;30476;53.468;9.826;2023-01-23T09:17:42;5.20;99.90
44166;DHT22;30476;53.468;9.826;2023-01-23T09:20:09;5.20;99.90
44166;DHT22;30476;53.468;9.826;2023-01-23T09:22:35;5.20;99.90
44166;DHT22;30476;53.468;9.826;2023-01-23T09:25:01;5.20;99.90
44166;DHT22;30476;53.468;9.826;2023-01-23T09:27:27;5.30;99.90
44166;DHT22;30476;53.468;9.826;2023-01-23T09:29:53;5.20;99.90
44166;DHT22;30476;53.468;9.826;2023-01-23T09:32:18;5.30;99.90
44166;DHT22;30476;53.468;9.826;2023-01-23T09:34:44;5.30;99.90
44166;DHT22;30476;53.468;9.826;2023-01-23T09:37:14;5.30;99.90
44166;DHT22;30476;53.468;9.826;2023-01-23T09:39:43;5.30;99.90
44166;DHT22;30476;53.468;9.826;2023-01-23T09:42:19;5.30;99.90
44166;DHT22;30476;53.468;9.826;2023-01-23T09:45:00;5.30;99.90
44166;DHT22;30476;53.468;9.826;2023-01-23T09:47:37;5.30;99.90
44166;DHT22;30476;53.468;9.826;2023-01-23T09:50:12;5.30;99.90
44166;DHT22;30476;53.468;9.826;2023-01-23T09:52:49;5.30;99.90
44166;DHT22;30476;53.468;9.826;2023-01-23T09:58:02;5.40;99.90
44166;DHT22;30476;53.468;9.826;2023-01-23T10:00:31;5.40;99.90
44166;DHT22;30476;53.468;9.826;2023-01-23T10:03:00;5.30;99.90
44166;DHT22;30476;53.468;9.826;2023-01-23T10:08:26;5.40;99.90
44166;DHT22;30476;53.468;9.826;2023-01-23T10:11:02;5.40;99.90
44166;DHT22;30476;53.468;9.826;2023-01-23T10:16:28;5.40;99.90
44166;DHT22;30476;53.468;9.826;2023-01-23T10:22:23;5.50;99.90
44166;DHT22;30476;53.468;9.826;2023-01-23T10:24:55;5.40;99.90
44166;DHT22;30476;53.468;9.826;2023-01-23T10:27:25;5.50;99.90
44166;DHT22;30476;53.468;9.826;2023-01-23T10:38:36;5.50;99.90
44166;DHT22;30476;53.468;9.826;2023-01-23T10:41:11;5.50;99.90
44166;DHT22;30476;53.468;9.826;2023-01-23T10:43:45;5.50;99.90
44166;DHT22;30476;53.468;9.826;2023-01-23T10:46:34;5.60;99.90
44166;DHT22;30476;53.468;9.826;2023-01-23T10:49:00;5.60;99.90
44166;DHT22;30476;53.468;9.826;2023-01-23T10:51:31;5.60;99.90
44166;DHT22;30476;53.468;9.826;2023-01-23T10:54:04;5.60;99.90
44166;DHT22;30476;53.468;9.826;2023-01-23T10:56:48;5.60;99.90
44166;DHT22;30476;53.468;9.826;2023-01-23T10:59:21;5.60;99.90
44166;DHT22;30476;53.468;9.826;2023-01-23T11:02:08;5.60;99.90
44166;DHT22;30476;53.468;9.826;2023-01-23T11:04:43;5.70;99.90
44166;DHT22;30476;53.468;9.826;2023-01-23T11:07:22;5.80;99.90
44166;DHT22;30476;53.468;9.826;2023-01-23T11:09:58;5.80;99.90
44166;DHT22;30476;53.468;9.826;2023-01-23T11:12:29;5.80;99.90
44166;DHT22;30476;53.468;9.826;2023-01-23T11:15:23;5.80;99.90
44166;DHT22;30476;53.468;9.826;2023-01-23T11:17:50;5.80;99.90
44166;DHT22;30476;53.468;9.826;2023-01-23T11:20:29;5.80;99.90
44166;DHT22;30476;53.468;9.826;2023-01-23T11:23:15;5.90;99.90
44166;DHT22;30476;53.468;9.826;2023-01-23T11:25:54;5.90;99.90
44166;DHT22;30476;53.468;9.826;2023-01-23T11:38:51;5.90;99.90
44166;DHT22;30476;53.468;9.826;2023-01-23T11:41:19;5.90;99.90
44166;DHT22;30476;53.468;9.826;2023-01-23T11:43:49;5.90;99.90
44166;DHT22;30476;53.468;9.826;2023-01-23T11:54:51;5.90;99.90
44166;DHT22;30476;53.468;9.826;2023-01-23T11:57:45;5.90;99.90
44166;DHT22;30476;53.468;9.826;2023-01-23T12:00:25;5.90;99.90
44166;DHT22;30476;53.468;9.826;2023-01-23T12:03:20;5.90;99.90
44166;DHT22;30476;53.468;9.826;2023-01-23T12:05:58;5.90;99.90
44166;DHT22;30476;53.468;9.826;2023-01-23T12:08:45;5.90;99.90
44166;DHT22;30476;53.468;9.826;2023-01-23T12:11:16;5.90;99.90
44166;DHT22;30476;53.468;9.826;2023-01-23T12:13:57;5.90;99.90
44166;DHT22;30476;53.468;9.826;2023-01-23T12:22:11;6.00;99.90
44166;DHT22;30476;53.468;9.826;2023-01-23T12:24:59;6.00;99.90
44166;DHT22;30476;53.468;9.826;2023-01-23T12:27:41;6.00;99.90
44166;DHT22;30476;53.468;9.826;2023-01-23T12:33:17;6.00;99.90
44166;DHT22;30476;53.468;9.826;2023-01-23T12:38:55;6.00;99.90
44166;DHT22;30476;53.468;9.826;2023-01-23T12:44:13;6.00;99.90
44166;DHT22;30476;53.468;9.826;2023-01-23T12:46:54;6.00;99.90
44166;DHT22;30476;53.468;9.826;2023-01-23T12:49:36;6.00;99.90
44166;DHT22;30476;53.468;9.826;2023-01-23T12:57:41;6.10;99.90
44166;DHT22;30476;53.468;9.826;2023-01-23T13:03:24;6.10;99.90
44166;DHT22;30476;53.468;9.826;2023-01-23T13:08:41;6.10;99.90
44166;DHT22;30476;53.468;9.826;2023-01-23T13:14:23;6.10;99.90
44166;DHT22;30476;53.468;9.826;2023-01-23T13:16:51;6.20;99.90
44166;DHT22;30476;53.468;9.826;2023-01-23T13:19:40;6.20;99.90
44166;DHT22;30476;53.468;9.826;2023-01-23T13:22:30;6.20;99.90
44166;DHT22;30476;53.468;9.826;2023-01-23T13:27:38;6.20;99.90
44166;DHT22;30476;53.468;9.826;2023-01-23T13:32:52;6.20;99.90
44166;DHT22;30476;53.468;9.826;2023-01-23T13:43:54;6.20;99.90
44166;DHT22;30476;53.468;9.826;2023-01-23T13:52:24;6.20;99.90
44166;DHT22;30476;53.468;9.826;2023-01-23T13:55:29;6.20;99.90
44166;DHT22;30476;53.468;9.826;2023-01-23T13:58:17;6.20;99.90
44166;DHT22;30476;53.468;9.826;2023-01-23T14:01:07;6.20;99.90
44166;DHT22;30476;53.468;9.826;2023-01-23T14:04:16;6.20;99.90
44166;DHT22;30476;53.468;9.826;2023-01-23T14:07:01;6.20;99.90
44166;DHT22;30476;53.468;9.826;2023-01-23T14:09:29;6.20;99.90
44166;DHT22;30476;53.468;9.826;2023-01-23T14:12:00;6.20;99.90
44166;DHT22;30476;53.468;9.826;2023-01-23T14:14:36;6.20;99.90
44166;DHT22;30476;53.468;9.826;2023-01-23T14:17:22;6.20;99.90
44166;DHT22;30476;53.468;9.826;2023-01-23T14:19:53;6.20;99.90
44166;DHT22;30476;53.468;9.826;2023-01-23T14:22:20;6.10;99.90
44166;DHT22;30476;53.468;9.826;2023-01-23T14:24:48;6.10;99.90
44166;DHT22;30476;53.468;9.826;2023-01-23T14:27:29;6.20;99.90
44166;DHT22;30476;53.468;9.826;2023-01-23T14:29:58;6.10;99.90
44166;DHT22;30476;53.468;9.826;2023-01-23T14:32:28;6.10;99.90
44166;DHT22;30476;53.468;9.826;2023-01-23T14:34:54;6.20;99.90
44166;DHT22;30476;53.468;9.826;2023-01-23T14:37:20;6.10;99.90
44166;DHT22;30476;53.468;9.826;2023-01-23T14:39:46;6.10;99.90
44166;DHT22;30476;53.468;9.826;2023-01-23T14:42:25;6.10;99.90
44166;DHT22;30476;53.468;9.826;2023-01-23T14:44:53;6.10;99.90
44166;DHT22;30476;53.468;9.826;2023-01-23T14:47:31;6.10;99.90
44166;DHT22;30476;53.468;9.826;2023-01-23T14:49:58;6.10;99.90
44166;DHT22;30476;53.468;9.826;2023-01-23T14:52:26;6.10;99.90
44166;DHT22;30476;53.468;9.826;2023-01-23T14:54:54;6.10;99.90
44166;DHT22;30476;53.468;9.826;2023-01-23T14:57:21;6.10;99.90
44166;DHT22;30476;53.468;9.826;2023-01-23T14:59:49;6.10;99.90
44166;DHT22;30476;53.468;9.826;2023-01-23T15:02:32;6.10;99.90
44166;DHT22;30476;53.468;9.826;2023-01-23T15:08:23;6.10;99.90
44166;DHT22;30476;53.468;9.826;2023-01-23T15:10:59;6.10;99.90
44166;DHT22;30476;53.468;9.826;2023-01-23T15:13:46;6.10;99.90
44166;DHT22;30476;53.468;9.826;2023-01-23T15:16:19;6.10;99.90
44166;DHT22;30476;53.468;9.826;2023-01-23T15:19:24;6.10;99.90
44166;DHT22;30476;53.468;9.826;2023-01-23T15:22:07;6.10;99.90
44166;DHT22;30476;53.468;9.826;2023-01-23T15:24:40;6.10;99.90
44166;DHT22;30476;53.468;9.826;2023-01-23T15:27:23;6.10;99.90
44166;DHT22;30476;53.468;9.826;2023-01-23T15:29:50;6.10;99.90
44166;DHT22;30476;53.468;9.826;2023-01-23T15:32:23;6.10;99.90
44166;DHT22;30476;53.468;9.826;2023-01-23T15:34:52;6.10;99.90
44166;DHT22;30476;53.468;9.826;2023-01-23T15:37:25;6.10;99.90
44166;DHT22;30476;53.468;9.826;2023-01-23T15:39:55;6.10;99.90
44166;DHT22;30476;53.468;9.826;2023-01-23T15:42:27;6.10;99.90
44166;DHT22;30476;53.468;9.826;2023-01-23T15:44:53;6.10;99.90
44166;DHT22;30476;53.468;9.826;2023-01-23T15:47:19;6.10;99.90
44166;DHT22;30476;53.468;9.826;2023-01-23T15:49:45;6.10;99.90
44166;DHT22;30476;53.468;9.826;2023-01-23T15:52:26;6.10;99.90
44166;DHT22;30476;53.468;9.826;2023-01-23T15:55:00;6.00;99.90
44166;DHT22;30476;53.468;9.826;2023-01-23T15:57:27;6.00;99.90
44166;DHT22;30476;53.468;9.826;2023-01-23T15:59:53;6.00;99.90
44166;DHT22;30476;53.468;9.826;2023-01-23T16:02:21;6.00;99.90
44166;DHT22;30476;53.468;9.826;2023-01-23T16:04:47;6.00;99.90
44166;DHT22;30476;53.468;9.826;2023-01-23T16:07:35;6.00;99.90
44166;DHT22;30476;53.468;9.826;2023-01-23T16:10:05;6.00;99.90
44166;DHT22;30476;53.468;9.826;2023-01-23T16:12:32;6.00;99.90
44166;DHT22;30476;53.468;9.826;2023-01-23T16:14:59;6.00;99.90
44166;DHT22;30476;53.468;9.826;2023-01-23T16:17:25;6.00;99.90
44166;DHT22;30476;53.468;9.826;2023-01-23T16:19:51;6.00;99.90
44166;DHT22;30476;53.468;9.826;2023-01-23T16:22:25;6.00;99.90
44166;DHT22;30476;53.468;9.826;2023-01-23T16:24:51;5.90;99.90
44166;DHT22;30476;53.468;9.826;2023-01-23T16:27:18;5.90;99.90
44166;DHT22;30476;53.468;9.826;2023-01-23T16:29:45;5.90;99.90
44166;DHT22;30476;53.468;9.826;2023-01-23T16:32:13;5.90;99.90
44166;DHT22;30476;53.468;9.826;2023-01-23T16:34:39;5.90;99.90
44166;DHT22;30476;53.468;9.826;2023-01-23T16:37:12;5.90;99.90
44166;DHT22;30476;53.468;9.826;2023-01-23T16:39:40;5.90;99.90
44166;DHT22;30476;53.468;9.826;2023-01-23T16:42:05;5.90;99.90
44166;DHT22;30476;53.468;9.826;2023-01-23T16:44:31;5.90;99.90
44166;DHT22;30476;53.468;9.826;2023-01-23T16:46:56;5.90;99.90
44166;DHT22;30476;53.468;9.826;2023-01-23T16:49:22;5.90;99.90
44166;DHT22;30476;53.468;9.826;2023-01-23T16:51:58;5.90;99.90
44166;DHT22;30476;53.468;9.826;2023-01-23T16:54:25;5.90;99.90
44166;DHT22;30476;53.468;9.826;2023-01-23T16:56:53;5.80;99.90
44166;DHT22;30476;53.468;9.826;2023-01-23T16:59:29;5.90;99.90
44166;DHT22;30476;53.468;9.826;2023-01-23T17:01:55;5.80;99.90
44166;DHT22;30476;53.468;9.826;2023-01-23T17:04:21;5.80;99.90
44166;DHT22;30476;53.468;9.826;2023-01-23T17:06:47;5.80;99.90
44166;DHT22;30476;53.468;9.826;2023-01-23T17:09:13;5.80;99.90
44166;DHT22;30476;53.468;9.826;2023-01-23T17:12:00;5.80;99.90
44166;DHT22;30476;53.468;9.826;2023-01-23T17:14:29;5.80;99.90
44166;DHT22;30476;53.468;9.826;2023-01-23T17:17:06;5.80;99.90
44166;DHT22;30476;53.468;9.826;2023-01-23T17:19:37;5.80;99.90
44166;DHT22;30476;53.468;9.826;2023-01-23T17:22:06;5.80;99.90
44166;DHT22;30476;53.468;9.826;2023-01-23T17:24:35;5.80;99.90
44166;DHT22;30476;53.468;9.826;2023-01-23T17:27:01;5.80;99.90
44166;DHT22;30476;53.468;9.826;2023-01-23T17:29:26;5.80;99.90
44166;DHT22;30476;53.468;9.826;2023-01-23T17:31:52;5.70;99.90
44166;DHT22;30476;53.468;9.826;2023-01-23T17:34:23;5.70;99.90
44166;DHT22;30476;53.468;9.826;2023-01-23T17:36:50;5.70;99.90
44166;DHT22;30476;53.468;9.826;2023-01-23T17:39:17;5.70;99.90
44166;DHT22;30476;53.468;9.826;2023-01-23T17:41:43;5.70;99.90
44166;DHT22;30476;53.468;9.826;2023-01-23T17:44:09;5.70;99.90